createdAt,value
2023-03-28T00:02:56.225Z,21.9
2023-03-28T00:08:48.335Z,21.6
2023-03-28T00:14:09.138Z,21.5
2023-03-28T00:19:45.285Z,21.3
2023-03-28T00:30:40.634Z,21
2023-03-28T00:36:32.620Z,20.9
2023-03-28T00:42:08.838Z,21
2023-03-28T00:48:17.781Z,22.7
2023-03-28T00:53:54.233Z,22.6
2023-03-28T00:59:29.961Z,22.1
2023-03-28T01:05:06.615Z,21.8
2023-03-28T01:10:43.055Z,21.5
2023-03-28T01:16:22.306Z,21.4
2023-03-28T01:21:42.454Z,21.3
2023-03-28T01:32:20.243Z,20.9
2023-03-28T01:37:57.605Z,20.9
2023-03-28T01:43:33.794Z,21
2023-03-28T01:49:10.490Z,22.6
2023-03-28T01:54:46.418Z,22.9
2023-03-28T02:00:29.610Z,22.2
2023-03-28T02:06:05.836Z,21.8
2023-03-28T02:11:57.630Z,21.5
2023-03-28T02:17:48.850Z,21.4
2023-03-28T02:23:25.103Z,21.2
2023-03-28T02:29:17.214Z,21
2023-03-28T02:35:08.826Z,20.9
2023-03-28T02:41:00.485Z,20.8
2023-03-28T02:46:55.197Z,21.4
2023-03-28T02:52:24.993Z,22.9
2023-03-28T02:58:16.189Z,22.6
2023-03-28T03:03:53.169Z,22.1
2023-03-28T03:09:30.318Z,21.6
2023-03-28T03:15:06.558Z,21.4
2023-03-28T03:20:43.042Z,21.3
2023-03-28T03:31:51.021Z,20.9
2023-03-28T03:37:30.644Z,21.2
2023-03-28T03:43:07.130Z,22.6
2023-03-28T03:48:28.420Z,22.9
2023-03-28T03:54:10.273Z,22.1
2023-03-28T03:59:31.294Z,21.7
2023-03-28T04:05:21.071Z,21.5
2023-03-28T04:10:57.062Z,21.3
2023-03-28T04:16:40.670Z,21.1
2023-03-28T04:22:36.287Z,20.9
2023-03-28T04:28:21.975Z,20.9
2023-03-28T04:33:59.000Z,22.6
2023-03-28T04:38:57.137Z,21.4
2023-03-28T04:44:18.342Z,22.3
2023-03-28T04:50:10.627Z,23.2
2023-03-28T04:56:02.424Z,22.4
2023-03-28T05:01:38.762Z,21.9
2023-03-28T05:07:32.177Z,21.6
2023-03-28T05:13:23.482Z,21.4
2023-03-28T05:19:19.180Z,21.2
2023-03-28T05:25:14.738Z,21
2023-03-28T05:31:04.977Z,20.9
2023-03-28T05:36:57.210Z,22.1
2023-03-28T05:42:49.067Z,23.1
2023-03-28T05:48:39.865Z,22.6
2023-03-28T05:54:31.286Z,22.1
2023-03-28T06:00:11.798Z,21.6
2023-03-28T06:06:05.035Z,21.5
2023-03-28T06:12:09.577Z,21.2
2023-03-28T06:18:10.249Z,20.9
2023-03-28T06:24:03.331Z,20.9
2023-03-28T06:29:54.861Z,22.1
2023-03-28T06:35:47.914Z,23.4
2023-03-28T06:41:40.152Z,22.8
2023-03-28T06:47:31.681Z,22
2023-03-28T06:52:53.216Z,21.7
2023-03-28T06:58:44.174Z,21.4
2023-03-28T07:04:39.667Z,21.2
2023-03-28T07:16:08.865Z,21
2023-03-28T07:22:09.533Z,21.9
2023-03-28T07:28:19.488Z,23.1
2023-03-28T07:34:43.103Z,23.1
2023-03-28T07:40:18.946Z,22.4
2023-03-28T07:45:39.570Z,21.9
2023-03-28T07:51:31.623Z,21.6
2023-03-28T07:57:33.322Z,21.4
2023-03-28T08:03:25.759Z,21
2023-03-28T08:09:32.034Z,20.9
2023-03-28T08:15:23.464Z,22.1
2023-03-28T08:21:27.895Z,23.2
2023-03-28T08:27:13.873Z,23.2
2023-03-28T08:33:05.431Z,22.7
2023-03-28T08:39:00.328Z,22.1
2023-03-28T08:44:36.658Z,21.8
2023-03-28T08:50:29.941Z,21.2
2023-03-28T08:56:24.152Z,21.3
2023-03-28T09:02:15.268Z,21.2
2023-03-28T09:08:26.384Z,22.1
2023-03-28T09:14:03.114Z,22.6
2023-03-28T09:20:04.779Z,22.8
2023-03-28T09:26:09.435Z,23.5
2023-03-28T09:31:47.005Z,22.1
2023-03-28T09:37:51.069Z,21.5
2023-03-28T09:43:43.170Z,21.1
2023-03-28T09:49:45.678Z,20.9
2023-03-28T09:55:32.267Z,20.7
2023-03-28T10:01:33.850Z,20.6
2023-03-28T10:07:25.877Z,20.8
2023-03-28T10:13:16.775Z,22.4
2023-03-28T10:19:08.195Z,22.8
2023-03-28T10:24:59.346Z,21.8
2023-03-28T10:36:28.611Z,21.1
2023-03-28T10:42:21.117Z,20.9
2023-03-28T10:48:12.449Z,21.6
2023-03-28T10:54:03.508Z,21.9
2023-03-28T10:59:56.050Z,22.6
2023-03-28T11:05:58.299Z,22.2
2023-03-28T11:11:58.711Z,21.8
2023-03-28T11:17:51.321Z,21.3
2023-03-28T11:23:55.352Z,21
2023-03-28T11:30:14.857Z,22.5
2023-03-28T11:35:51.243Z,23.1
2023-03-28T11:41:44.493Z,21.9
2023-03-28T11:47:49.738Z,21.4
2023-03-28T11:53:42.478Z,21.3
2023-03-28T11:59:33.957Z,21.2
2023-03-28T12:05:35.680Z,21.4
2023-03-28T12:11:44.292Z,22.8
2023-03-28T12:17:48.114Z,22
2023-03-28T12:23:40.981Z,21.6
2023-03-28T12:29:17.172Z,21.4
2023-03-28T12:35:09.577Z,21.3
2023-03-28T12:46:38.233Z,22
2023-03-28T12:52:30.430Z,23.4
2023-03-28T12:58:24.274Z,22.4
2023-03-28T13:04:16.280Z,21.9
2023-03-28T13:10:08.454Z,21.6
2023-03-28T13:16:00.437Z,21.4
2023-03-28T13:27:15.074Z,22.5
2023-03-28T13:33:06.502Z,23.1
2023-03-28T13:38:46.526Z,22.3
2023-03-28T13:44:37.911Z,21.8
2023-03-28T13:50:09.574Z,21.6
2023-03-28T13:56:14.440Z,21.3
2023-03-28T14:02:06.214Z,21.1
2023-03-28T14:07:59.571Z,22.6
2023-03-28T14:13:51.198Z,22.9
2023-03-28T14:19:45.157Z,22.1
2023-03-28T14:25:45.783Z,21.8
2023-03-28T14:31:25.585Z,21.5
2023-03-28T14:37:27.185Z,21.2
2023-03-28T14:43:18.159Z,21
2023-03-28T14:49:10.242Z,20.6
2023-03-28T14:55:03.772Z,20.6
2023-03-28T15:00:55.099Z,20.6
2023-03-28T15:06:49.063Z,20.4
2023-03-28T15:12:26.266Z,20.3
2023-03-28T15:18:20.266Z,23.6
2023-03-28T15:24:11.946Z,26.6
2023-03-28T15:30:05.831Z,27.3
2023-03-28T15:35:44.704Z,28.1
2023-03-28T15:41:36.042Z,27.8
2023-03-28T15:47:27.084Z,28.3
2023-03-28T15:53:20.758Z,28.3
2023-03-28T15:59:29.259Z,27.6
2023-03-28T16:05:05.129Z,27.6
2023-03-28T16:11:16.118Z,28.6
2023-03-28T16:16:52.896Z,27.8
2023-03-28T16:22:43.898Z,28.8
2023-03-28T16:28:20.533Z,27.7
2023-03-28T16:33:58.044Z,28.6
2023-03-28T16:39:49.960Z,28.1
2023-03-28T16:45:40.873Z,28.8
2023-03-28T16:51:32.453Z,29.6
2023-03-28T16:56:52.915Z,30.4
2023-03-28T17:02:45.470Z,30.6
2023-03-28T17:08:40.511Z,31.7
2023-03-28T17:14:32.209Z,31.8
2023-03-28T17:19:53.462Z,31.8
2023-03-28T17:25:54.603Z,31.8
2023-03-28T17:31:54.194Z,32.2
2023-03-28T17:37:47.172Z,31.3
2023-03-28T17:43:39.361Z,31.6
2023-03-28T17:49:34.438Z,31.7
2023-03-28T17:55:11.684Z,31.6
2023-03-28T18:00:49.123Z,31.1
2023-03-28T18:06:41.591Z,30.4
2023-03-28T18:12:36.290Z,31.3
2023-03-28T18:18:13.450Z,31.3
2023-03-28T18:23:48.906Z,31.1
2023-03-28T18:29:27.772Z,31.5
2023-03-28T18:35:24.676Z,30.9
2023-03-28T18:40:48.241Z,30.6
2023-03-28T18:46:41.137Z,30.2
2023-03-28T18:52:18.086Z,30.9
2023-03-28T18:57:55.600Z,31.1
2023-03-28T19:03:34.129Z,30.8
2023-03-28T19:08:56.654Z,30.4
2023-03-28T19:14:33.641Z,30
2023-03-28T19:19:58.313Z,29.4
2023-03-28T19:25:36.206Z,28.6
2023-03-28T19:31:30.433Z,27.6
2023-03-28T19:37:24.108Z,26.9
2023-03-28T19:43:03.942Z,26.3
2023-03-28T19:48:44.987Z,26.3
2023-03-28T19:54:37.531Z,25.9
2023-03-28T20:00:30.516Z,25.6
2023-03-28T20:05:52.581Z,25.4
2023-03-28T20:11:31.601Z,25.3
2023-03-28T20:17:09.888Z,25.1
2023-03-28T20:23:01.462Z,24.9
2023-03-28T20:28:37.896Z,24.7
2023-03-28T20:34:29.800Z,24.8
2023-03-28T20:40:21.722Z,24.3
2023-03-28T20:45:59.507Z,23.4
2023-03-28T20:51:54.987Z,23.1
2023-03-28T20:57:47.319Z,22.8
2023-03-28T21:03:39.393Z,22.5
2023-03-28T21:09:31.013Z,22.4
2023-03-28T21:15:22.349Z,22.1
2023-03-28T21:20:58.204Z,22
2023-03-28T21:26:34.390Z,22
2023-03-28T21:31:55.280Z,21.9
2023-03-28T21:37:32.814Z,21.9
2023-03-28T21:43:08.920Z,21.9
2023-03-28T21:47:58.485Z,21.9
2023-03-28T21:53:50.212Z,23.2
2023-03-28T21:59:42.753Z,23.4
2023-03-28T22:05:29.432Z,23.1
2023-03-28T22:10:19.865Z,22.6
2023-03-28T22:15:56.709Z,22.4
2023-03-28T22:21:17.278Z,21.4
2023-03-28T22:26:21.686Z,21.2
2023-03-28T22:31:58.395Z,21.7
2023-03-28T22:37:33.703Z,21.8
2023-03-28T22:43:09.415Z,21.7
2023-03-28T22:48:31.168Z,21.8
2023-03-28T22:54:07.465Z,23.1
2023-03-28T22:59:28.917Z,23.6
2023-03-28T23:05:20.978Z,22.9
2023-03-28T23:10:57.062Z,22.6
2023-03-28T23:16:48.795Z,22.2
2023-03-28T23:22:26.063Z,22
2023-03-28T23:28:18.978Z,21.8
2023-03-28T23:34:10.884Z,21.8
2023-03-28T23:40:03.151Z,21.8
2023-03-28T23:45:38.911Z,23.3
2023-03-28T23:50:59.934Z,23.9
2023-03-28T23:56:20.813Z,23.3
